sensor_id;sensor_type;location;lat;lon;timestamp;P1;durP1;ratioP1;P2;durP2;ratioP2
46288;SDS011;63105;46.158;14.604;2024-01-25T00:01:27;31.25;;;21.02;;
46288;SDS011;63105;46.158;14.604;2024-01-25T00:03:52;33.25;;;21.92;;
46288;SDS011;63105;46.158;14.604;2024-01-25T00:06:18;41.80;;;28.08;;
46288;SDS011;63105;46.158;14.604;2024-01-25T00:08:43;32.78;;;22.33;;
46288;SDS011;63105;46.158;14.604;2024-01-25T00:11:08;30.50;;;21.02;;
46288;SDS011;63105;46.158;14.604;2024-01-25T00:13:34;28.92;;;19.52;;
46288;SDS011;63105;46.158;14.604;2024-01-25T00:16:00;30.27;;;20.05;;
46288;SDS011;63105;46.158;14.604;2024-01-25T00:18:25;31.98;;;21.33;;
46288;SDS011;63105;46.158;14.604;2024-01-25T00:20:50;29.80;;;20.08;;
46288;SDS011;63105;46.158;14.604;2024-01-25T00:23:15;31.48;;;20.67;;
46288;SDS011;63105;46.158;14.604;2024-01-25T00:25:41;30.83;;;20.67;;
46288;SDS011;63105;46.158;14.604;2024-01-25T00:28:06;30.88;;;20.40;;
46288;SDS011;63105;46.158;14.604;2024-01-25T00:30:31;33.40;;;21.70;;
46288;SDS011;63105;46.158;14.604;2024-01-25T00:32:57;28.73;;;20.70;;
46288;SDS011;63105;46.158;14.604;2024-01-25T00:35:22;29.13;;;20.77;;
46288;SDS011;63105;46.158;14.604;2024-01-25T00:37:48;31.27;;;20.77;;
46288;SDS011;63105;46.158;14.604;2024-01-25T00:40:13;31.35;;;21.05;;
46288;SDS011;63105;46.158;14.604;2024-01-25T00:42:43;29.98;;;19.92;;
46288;SDS011;63105;46.158;14.604;2024-01-25T00:45:09;32.72;;;22.58;;
46288;SDS011;63105;46.158;14.604;2024-01-25T00:47:34;29.45;;;20.15;;
46288;SDS011;63105;46.158;14.604;2024-01-25T00:50:00;26.60;;;18.75;;
46288;SDS011;63105;46.158;14.604;2024-01-25T00:52:25;34.92;;;22.00;;
46288;SDS011;63105;46.158;14.604;2024-01-25T00:54:51;28.60;;;20.02;;
46288;SDS011;63105;46.158;14.604;2024-01-25T00:57:16;28.42;;;19.08;;
46288;SDS011;63105;46.158;14.604;2024-01-25T00:59:41;32.30;;;22.20;;
46288;SDS011;63105;46.158;14.604;2024-01-25T01:02:07;29.90;;;20.02;;
46288;SDS011;63105;46.158;14.604;2024-01-25T01:04:35;27.85;;;20.02;;
46288;SDS011;63105;46.158;14.604;2024-01-25T01:07:01;35.58;;;22.13;;
46288;SDS011;63105;46.158;14.604;2024-01-25T01:09:26;29.77;;;20.98;;
46288;SDS011;63105;46.158;14.604;2024-01-25T01:11:51;29.25;;;20.25;;
46288;SDS011;63105;46.158;14.604;2024-01-25T01:14:17;29.98;;;20.33;;
46288;SDS011;63105;46.158;14.604;2024-01-25T01:16:42;31.45;;;21.13;;
46288;SDS011;63105;46.158;14.604;2024-01-25T01:19:07;33.85;;;21.60;;
46288;SDS011;63105;46.158;14.604;2024-01-25T01:21:33;36.97;;;24.48;;
46288;SDS011;63105;46.158;14.604;2024-01-25T01:23:58;32.33;;;20.52;;
46288;SDS011;63105;46.158;14.604;2024-01-25T01:26:24;26.65;;;19.60;;
46288;SDS011;63105;46.158;14.604;2024-01-25T01:28:49;35.80;;;23.52;;
46288;SDS011;63105;46.158;14.604;2024-01-25T01:31:14;34.88;;;23.27;;
46288;SDS011;63105;46.158;14.604;2024-01-25T01:33:39;30.70;;;19.75;;
46288;SDS011;63105;46.158;14.604;2024-01-25T01:36:05;26.05;;;18.83;;
46288;SDS011;63105;46.158;14.604;2024-01-25T01:38:30;32.83;;;21.85;;
46288;SDS011;63105;46.158;14.604;2024-01-25T01:40:55;31.25;;;20.83;;
46288;SDS011;63105;46.158;14.604;2024-01-25T01:43:21;27.73;;;18.83;;
46288;SDS011;63105;46.158;14.604;2024-01-25T01:45:48;29.95;;;20.00;;
46288;SDS011;63105;46.158;14.604;2024-01-25T01:48:13;29.17;;;19.85;;
46288;SDS011;63105;46.158;14.604;2024-01-25T01:50:39;26.58;;;18.48;;
46288;SDS011;63105;46.158;14.604;2024-01-25T01:53:04;26.92;;;18.60;;
46288;SDS011;63105;46.158;14.604;2024-01-25T01:55:30;26.23;;;18.15;;
46288;SDS011;63105;46.158;14.604;2024-01-25T01:57:56;25.85;;;18.00;;
46288;SDS011;63105;46.158;14.604;2024-01-25T02:00:21;25.90;;;17.75;;
46288;SDS011;63105;46.158;14.604;2024-01-25T02:02:47;26.70;;;17.77;;
46288;SDS011;63105;46.158;14.604;2024-01-25T02:05:12;28.30;;;17.77;;
46288;SDS011;63105;46.158;14.604;2024-01-25T02:07:38;25.88;;;17.35;;
46288;SDS011;63105;46.158;14.604;2024-01-25T02:10:05;26.35;;;17.60;;
46288;SDS011;63105;46.158;14.604;2024-01-25T02:12:30;29.95;;;20.45;;
46288;SDS011;63105;46.158;14.604;2024-01-25T02:14:55;25.35;;;17.85;;
46288;SDS011;63105;46.158;14.604;2024-01-25T02:17:21;27.10;;;18.23;;
46288;SDS011;63105;46.158;14.604;2024-01-25T02:19:46;25.85;;;17.33;;
46288;SDS011;63105;46.158;14.604;2024-01-25T02:22:14;22.40;;;16.10;;
46288;SDS011;63105;46.158;14.604;2024-01-25T02:24:39;25.75;;;17.45;;
46288;SDS011;63105;46.158;14.604;2024-01-25T02:27:05;22.40;;;15.57;;
46288;SDS011;63105;46.158;14.604;2024-01-25T02:29:30;23.42;;;15.93;;
46288;SDS011;63105;46.158;14.604;2024-01-25T02:31:55;23.83;;;15.98;;
46288;SDS011;63105;46.158;14.604;2024-01-25T02:34:20;24.58;;;16.20;;
46288;SDS011;63105;46.158;14.604;2024-01-25T02:36:45;26.27;;;17.95;;
46288;SDS011;63105;46.158;14.604;2024-01-25T02:39:11;24.63;;;16.13;;
46288;SDS011;63105;46.158;14.604;2024-01-25T02:41:36;22.08;;;15.90;;
46288;SDS011;63105;46.158;14.604;2024-01-25T02:44:01;22.42;;;15.40;;
46288;SDS011;63105;46.158;14.604;2024-01-25T02:46:26;22.95;;;16.00;;
46288;SDS011;63105;46.158;14.604;2024-01-25T02:48:51;21.98;;;15.60;;
46288;SDS011;63105;46.158;14.604;2024-01-25T02:51:17;22.05;;;15.07;;
46288;SDS011;63105;46.158;14.604;2024-01-25T02:53:42;23.75;;;15.60;;
46288;SDS011;63105;46.158;14.604;2024-01-25T02:56:07;22.83;;;14.90;;
46288;SDS011;63105;46.158;14.604;2024-01-25T02:58:33;22.50;;;15.75;;
46288;SDS011;63105;46.158;14.604;2024-01-25T03:00:58;20.77;;;14.20;;
46288;SDS011;63105;46.158;14.604;2024-01-25T03:03:23;21.48;;;15.25;;
46288;SDS011;63105;46.158;14.604;2024-01-25T03:05:49;21.65;;;14.75;;
46288;SDS011;63105;46.158;14.604;2024-01-25T03:08:14;21.13;;;15.05;;
46288;SDS011;63105;46.158;14.604;2024-01-25T03:10:39;19.77;;;14.20;;
46288;SDS011;63105;46.158;14.604;2024-01-25T03:13:04;21.67;;;15.00;;
46288;SDS011;63105;46.158;14.604;2024-01-25T03:15:29;24.05;;;16.45;;
46288;SDS011;63105;46.158;14.604;2024-01-25T03:17:55;21.13;;;14.85;;
46288;SDS011;63105;46.158;14.604;2024-01-25T03:20:20;20.30;;;14.32;;
46288;SDS011;63105;46.158;14.604;2024-01-25T03:22:45;21.00;;;14.52;;
46288;SDS011;63105;46.158;14.604;2024-01-25T03:25:10;21.00;;;14.95;;
46288;SDS011;63105;46.158;14.604;2024-01-25T03:27:36;22.35;;;15.57;;
46288;SDS011;63105;46.158;14.604;2024-01-25T03:30:01;28.33;;;19.02;;
46288;SDS011;63105;46.158;14.604;2024-01-25T03:32:26;24.08;;;16.90;;
46288;SDS011;63105;46.158;14.604;2024-01-25T03:34:51;24.50;;;16.23;;
46288;SDS011;63105;46.158;14.604;2024-01-25T03:37:16;23.55;;;15.88;;
46288;SDS011;63105;46.158;14.604;2024-01-25T03:39:42;20.77;;;14.90;;
46288;SDS011;63105;46.158;14.604;2024-01-25T03:42:08;21.95;;;15.27;;
46288;SDS011;63105;46.158;14.604;2024-01-25T03:44:33;22.73;;;15.73;;
46288;SDS011;63105;46.158;14.604;2024-01-25T03:46:58;22.52;;;15.30;;
46288;SDS011;63105;46.158;14.604;2024-01-25T03:49:24;23.27;;;15.20;;
46288;SDS011;63105;46.158;14.604;2024-01-25T03:51:49;21.90;;;15.18;;
46288;SDS011;63105;46.158;14.604;2024-01-25T03:54:15;25.50;;;17.00;;
46288;SDS011;63105;46.158;14.604;2024-01-25T03:56:40;22.10;;;15.02;;
46288;SDS011;63105;46.158;14.604;2024-01-25T03:59:05;23.27;;;16.17;;
46288;SDS011;63105;46.158;14.604;2024-01-25T04:01:40;24.17;;;15.98;;
46288;SDS011;63105;46.158;14.604;2024-01-25T04:04:05;24.70;;;17.58;;
46288;SDS011;63105;46.158;14.604;2024-01-25T04:06:33;22.30;;;16.23;;
46288;SDS011;63105;46.158;14.604;2024-01-25T04:08:58;23.90;;;16.50;;
46288;SDS011;63105;46.158;14.604;2024-01-25T04:11:23;28.45;;;18.83;;
46288;SDS011;63105;46.158;14.604;2024-01-25T04:13:48;22.00;;;15.75;;
46288;SDS011;63105;46.158;14.604;2024-01-25T04:16:14;24.60;;;17.17;;
46288;SDS011;63105;46.158;14.604;2024-01-25T04:18:39;23.85;;;16.48;;
46288;SDS011;63105;46.158;14.604;2024-01-25T04:21:05;26.30;;;17.27;;
46288;SDS011;63105;46.158;14.604;2024-01-25T04:23:30;23.17;;;16.67;;
46288;SDS011;63105;46.158;14.604;2024-01-25T04:25:55;23.10;;;15.65;;
46288;SDS011;63105;46.158;14.604;2024-01-25T04:28:20;24.27;;;16.95;;
46288;SDS011;63105;46.158;14.604;2024-01-25T04:30:46;24.23;;;16.52;;
46288;SDS011;63105;46.158;14.604;2024-01-25T04:33:11;25.88;;;17.65;;
46288;SDS011;63105;46.158;14.604;2024-01-25T04:35:36;23.55;;;16.48;;
46288;SDS011;63105;46.158;14.604;2024-01-25T04:38:01;25.08;;;17.05;;
46288;SDS011;63105;46.158;14.604;2024-01-25T04:40:26;23.45;;;16.80;;
46288;SDS011;63105;46.158;14.604;2024-01-25T04:42:52;23.02;;;16.05;;
46288;SDS011;63105;46.158;14.604;2024-01-25T04:45:17;24.60;;;16.67;;
46288;SDS011;63105;46.158;14.604;2024-01-25T04:47:42;24.20;;;16.08;;
46288;SDS011;63105;46.158;14.604;2024-01-25T04:50:07;23.08;;;16.27;;
46288;SDS011;63105;46.158;14.604;2024-01-25T04:52:33;25.65;;;18.42;;
46288;SDS011;63105;46.158;14.604;2024-01-25T04:54:58;25.42;;;17.95;;
46288;SDS011;63105;46.158;14.604;2024-01-25T04:57:23;25.65;;;17.77;;
46288;SDS011;63105;46.158;14.604;2024-01-25T04:59:48;24.88;;;17.30;;
46288;SDS011;63105;46.158;14.604;2024-01-25T05:02:14;27.27;;;17.80;;
46288;SDS011;63105;46.158;14.604;2024-01-25T05:04:39;25.30;;;17.00;;
46288;SDS011;63105;46.158;14.604;2024-01-25T05:07:04;25.20;;;17.70;;
46288;SDS011;63105;46.158;14.604;2024-01-25T05:09:29;23.00;;;16.60;;
46288;SDS011;63105;46.158;14.604;2024-01-25T05:11:54;25.92;;;17.67;;
46288;SDS011;63105;46.158;14.604;2024-01-25T05:14:23;23.10;;;16.50;;
46288;SDS011;63105;46.158;14.604;2024-01-25T05:16:48;26.35;;;18.65;;
46288;SDS011;63105;46.158;14.604;2024-01-25T05:19:13;28.92;;;20.83;;
46288;SDS011;63105;46.158;14.604;2024-01-25T05:21:39;29.02;;;19.40;;
46288;SDS011;63105;46.158;14.604;2024-01-25T05:24:04;42.45;;;26.48;;
46288;SDS011;63105;46.158;14.604;2024-01-25T05:26:29;28.52;;;19.52;;
46288;SDS011;63105;46.158;14.604;2024-01-25T05:28:54;24.42;;;16.92;;
46288;SDS011;63105;46.158;14.604;2024-01-25T05:31:20;26.50;;;18.50;;
46288;SDS011;63105;46.158;14.604;2024-01-25T05:33:45;26.00;;;17.98;;
46288;SDS011;63105;46.158;14.604;2024-01-25T05:36:10;28.35;;;19.67;;
46288;SDS011;63105;46.158;14.604;2024-01-25T05:38:37;25.65;;;17.73;;
46288;SDS011;63105;46.158;14.604;2024-01-25T05:41:02;23.73;;;17.15;;
46288;SDS011;63105;46.158;14.604;2024-01-25T05:43:27;38.50;;;26.15;;
46288;SDS011;63105;46.158;14.604;2024-01-25T05:45:53;33.28;;;22.85;;
46288;SDS011;63105;46.158;14.604;2024-01-25T05:48:18;28.63;;;19.88;;
46288;SDS011;63105;46.158;14.604;2024-01-25T05:50:43;26.55;;;18.27;;
46288;SDS011;63105;46.158;14.604;2024-01-25T05:53:09;28.60;;;18.92;;
46288;SDS011;63105;46.158;14.604;2024-01-25T05:55:34;25.15;;;18.55;;
46288;SDS011;63105;46.158;14.604;2024-01-25T05:57:59;27.63;;;18.48;;
46288;SDS011;63105;46.158;14.604;2024-01-25T06:00:25;25.63;;;18.08;;
46288;SDS011;63105;46.158;14.604;2024-01-25T06:02:50;27.52;;;18.40;;
46288;SDS011;63105;46.158;14.604;2024-01-25T06:05:15;35.78;;;24.65;;
46288;SDS011;63105;46.158;14.604;2024-01-25T06:07:40;26.98;;;19.20;;
46288;SDS011;63105;46.158;14.604;2024-01-25T06:10:06;28.23;;;19.08;;
46288;SDS011;63105;46.158;14.604;2024-01-25T06:12:31;27.13;;;18.58;;
46288;SDS011;63105;46.158;14.604;2024-01-25T06:14:56;26.10;;;17.30;;
46288;SDS011;63105;46.158;14.604;2024-01-25T06:17:22;26.35;;;18.60;;
46288;SDS011;63105;46.158;14.604;2024-01-25T06:19:47;25.95;;;17.20;;
46288;SDS011;63105;46.158;14.604;2024-01-25T06:22:12;24.63;;;17.50;;
46288;SDS011;63105;46.158;14.604;2024-01-25T06:24:38;25.30;;;17.25;;
46288;SDS011;63105;46.158;14.604;2024-01-25T06:27:03;26.70;;;17.40;;
46288;SDS011;63105;46.158;14.604;2024-01-25T06:29:28;24.83;;;17.52;;
46288;SDS011;63105;46.158;14.604;2024-01-25T06:31:53;26.85;;;18.30;;
46288;SDS011;63105;46.158;14.604;2024-01-25T06:34:19;25.08;;;17.17;;
46288;SDS011;63105;46.158;14.604;2024-01-25T06:36:44;24.63;;;17.95;;
46288;SDS011;63105;46.158;14.604;2024-01-25T06:39:09;27.27;;;18.33;;
46288;SDS011;63105;46.158;14.604;2024-01-25T06:41:35;25.90;;;17.17;;
46288;SDS011;63105;46.158;14.604;2024-01-25T06:44:00;26.60;;;18.33;;
46288;SDS011;63105;46.158;14.604;2024-01-25T06:46:25;30.85;;;21.17;;
46288;SDS011;63105;46.158;14.604;2024-01-25T06:48:51;29.58;;;19.40;;
46288;SDS011;63105;46.158;14.604;2024-01-25T06:51:16;26.92;;;18.65;;
46288;SDS011;63105;46.158;14.604;2024-01-25T06:53:42;28.83;;;19.60;;
46288;SDS011;63105;46.158;14.604;2024-01-25T06:56:07;26.00;;;18.92;;
46288;SDS011;63105;46.158;14.604;2024-01-25T06:58:32;26.70;;;18.58;;
46288;SDS011;63105;46.158;14.604;2024-01-25T07:00:57;27.02;;;18.58;;
46288;SDS011;63105;46.158;14.604;2024-01-25T07:03:23;28.42;;;19.27;;
46288;SDS011;63105;46.158;14.604;2024-01-25T07:05:48;28.83;;;19.75;;
46288;SDS011;63105;46.158;14.604;2024-01-25T07:08:13;28.92;;;19.70;;
46288;SDS011;63105;46.158;14.604;2024-01-25T07:10:40;33.10;;;22.55;;
46288;SDS011;63105;46.158;14.604;2024-01-25T07:13:05;28.90;;;19.88;;
46288;SDS011;63105;46.158;14.604;2024-01-25T07:15:31;33.08;;;22.48;;
46288;SDS011;63105;46.158;14.604;2024-01-25T07:17:56;28.98;;;19.85;;
46288;SDS011;63105;46.158;14.604;2024-01-25T07:20:21;30.48;;;21.75;;
46288;SDS011;63105;46.158;14.604;2024-01-25T07:22:46;30.70;;;21.00;;
46288;SDS011;63105;46.158;14.604;2024-01-25T07:25:12;33.55;;;23.10;;
46288;SDS011;63105;46.158;14.604;2024-01-25T07:27:37;32.50;;;22.90;;
46288;SDS011;63105;46.158;14.604;2024-01-25T07:30:02;32.90;;;22.58;;
46288;SDS011;63105;46.158;14.604;2024-01-25T07:32:27;32.75;;;22.40;;
46288;SDS011;63105;46.158;14.604;2024-01-25T07:34:53;34.40;;;23.48;;
46288;SDS011;63105;46.158;14.604;2024-01-25T07:37:19;30.75;;;21.63;;
46288;SDS011;63105;46.158;14.604;2024-01-25T07:39:44;31.50;;;21.52;;
46288;SDS011;63105;46.158;14.604;2024-01-25T07:42:10;29.98;;;20.55;;
46288;SDS011;63105;46.158;14.604;2024-01-25T07:44:35;42.92;;;27.70;;
46288;SDS011;63105;46.158;14.604;2024-01-25T07:47:00;35.35;;;24.17;;
46288;SDS011;63105;46.158;14.604;2024-01-25T07:49:27;58.33;;;36.13;;
46288;SDS011;63105;46.158;14.604;2024-01-25T07:51:52;33.88;;;24.52;;
46288;SDS011;63105;46.158;14.604;2024-01-25T07:54:17;46.53;;;32.72;;
46288;SDS011;63105;46.158;14.604;2024-01-25T07:56:42;36.80;;;25.38;;
46288;SDS011;63105;46.158;14.604;2024-01-25T07:59:08;44.97;;;30.35;;
46288;SDS011;63105;46.158;14.604;2024-01-25T08:04:35;37.22;;;25.48;;
46288;SDS011;63105;46.158;14.604;2024-01-25T08:07:00;36.25;;;24.67;;
46288;SDS011;63105;46.158;14.604;2024-01-25T08:09:26;35.85;;;25.52;;
46288;SDS011;63105;46.158;14.604;2024-01-25T08:11:51;32.13;;;22.83;;
46288;SDS011;63105;46.158;14.604;2024-01-25T08:14:16;35.72;;;25.10;;
46288;SDS011;63105;46.158;14.604;2024-01-25T08:16:42;40.97;;;26.10;;
46288;SDS011;63105;46.158;14.604;2024-01-25T08:19:07;38.45;;;26.02;;
46288;SDS011;63105;46.158;14.604;2024-01-25T08:21:32;36.50;;;25.27;;
46288;SDS011;63105;46.158;14.604;2024-01-25T08:23:57;39.60;;;26.70;;
46288;SDS011;63105;46.158;14.604;2024-01-25T08:26:23;38.60;;;26.75;;
46288;SDS011;63105;46.158;14.604;2024-01-25T08:28:48;50.58;;;33.08;;
46288;SDS011;63105;46.158;14.604;2024-01-25T08:31:13;40.10;;;27.73;;
46288;SDS011;63105;46.158;14.604;2024-01-25T08:33:39;41.22;;;29.30;;
46288;SDS011;63105;46.158;14.604;2024-01-25T08:36:09;38.05;;;27.35;;
46288;SDS011;63105;46.158;14.604;2024-01-25T08:38:34;42.83;;;27.75;;
46288;SDS011;63105;46.158;14.604;2024-01-25T08:41:00;49.17;;;33.53;;
46288;SDS011;63105;46.158;14.604;2024-01-25T08:43:25;40.13;;;28.73;;
46288;SDS011;63105;46.158;14.604;2024-01-25T08:45:50;49.72;;;34.33;;
46288;SDS011;63105;46.158;14.604;2024-01-25T08:48:15;50.03;;;34.00;;
46288;SDS011;63105;46.158;14.604;2024-01-25T08:50:41;43.53;;;30.10;;
46288;SDS011;63105;46.158;14.604;2024-01-25T08:53:06;50.88;;;34.15;;
46288;SDS011;63105;46.158;14.604;2024-01-25T08:55:31;55.28;;;36.50;;
46288;SDS011;63105;46.158;14.604;2024-01-25T08:57:57;51.83;;;35.03;;
46288;SDS011;63105;46.158;14.604;2024-01-25T09:00:22;46.15;;;31.50;;
46288;SDS011;63105;46.158;14.604;2024-01-25T09:05:50;43.60;;;31.58;;
46288;SDS011;63105;46.158;14.604;2024-01-25T09:08:15;41.22;;;28.73;;
46288;SDS011;63105;46.158;14.604;2024-01-25T09:10:41;42.80;;;30.77;;
46288;SDS011;63105;46.158;14.604;2024-01-25T09:13:07;49.85;;;34.95;;
46288;SDS011;63105;46.158;14.604;2024-01-25T09:15:32;45.42;;;30.45;;
46288;SDS011;63105;46.158;14.604;2024-01-25T09:17:58;45.67;;;31.77;;
46288;SDS011;63105;46.158;14.604;2024-01-25T09:20:23;43.22;;;31.10;;
46288;SDS011;63105;46.158;14.604;2024-01-25T09:22:48;43.45;;;28.63;;
46288;SDS011;63105;46.158;14.604;2024-01-25T09:25:13;46.15;;;31.55;;
46288;SDS011;63105;46.158;14.604;2024-01-25T09:27:38;39.33;;;27.05;;
46288;SDS011;63105;46.158;14.604;2024-01-25T09:30:07;42.40;;;28.30;;
46288;SDS011;63105;46.158;14.604;2024-01-25T09:32:33;41.38;;;27.98;;
46288;SDS011;63105;46.158;14.604;2024-01-25T09:34:58;37.65;;;27.48;;
46288;SDS011;63105;46.158;14.604;2024-01-25T09:37:23;38.53;;;26.52;;
46288;SDS011;63105;46.158;14.604;2024-01-25T09:39:50;38.22;;;26.35;;
46288;SDS011;63105;46.158;14.604;2024-01-25T09:42:16;40.97;;;29.00;;
46288;SDS011;63105;46.158;14.604;2024-01-25T09:44:41;38.42;;;27.60;;
46288;SDS011;63105;46.158;14.604;2024-01-25T09:47:08;37.05;;;25.73;;
46288;SDS011;63105;46.158;14.604;2024-01-25T09:49:33;35.55;;;25.35;;
46288;SDS011;63105;46.158;14.604;2024-01-25T09:51:59;39.22;;;28.33;;
46288;SDS011;63105;46.158;14.604;2024-01-25T09:54:28;36.63;;;25.60;;
46288;SDS011;63105;46.158;14.604;2024-01-25T09:56:54;40.47;;;29.70;;
46288;SDS011;63105;46.158;14.604;2024-01-25T09:59:19;36.33;;;27.23;;
46288;SDS011;63105;46.158;14.604;2024-01-25T10:01:44;42.70;;;26.73;;
46288;SDS011;63105;46.158;14.604;2024-01-25T10:04:11;47.42;;;33.05;;
46288;SDS011;63105;46.158;14.604;2024-01-25T10:06:36;40.00;;;29.15;;
46288;SDS011;63105;46.158;14.604;2024-01-25T10:09:04;41.78;;;30.30;;
46288;SDS011;63105;46.158;14.604;2024-01-25T10:11:29;35.72;;;26.35;;
46288;SDS011;63105;46.158;14.604;2024-01-25T10:14:01;35.85;;;26.70;;
46288;SDS011;63105;46.158;14.604;2024-01-25T10:16:26;42.00;;;29.45;;
46288;SDS011;63105;46.158;14.604;2024-01-25T10:18:51;38.90;;;27.85;;
46288;SDS011;63105;46.158;14.604;2024-01-25T10:21:17;36.13;;;25.98;;
46288;SDS011;63105;46.158;14.604;2024-01-25T10:23:45;39.30;;;26.73;;
46288;SDS011;63105;46.158;14.604;2024-01-25T10:26:11;33.45;;;25.20;;
46288;SDS011;63105;46.158;14.604;2024-01-25T10:28:36;34.15;;;24.80;;
46288;SDS011;63105;46.158;14.604;2024-01-25T10:31:02;37.45;;;27.13;;
46288;SDS011;63105;46.158;14.604;2024-01-25T10:33:29;36.75;;;26.38;;
46288;SDS011;63105;46.158;14.604;2024-01-25T10:35:54;37.55;;;25.73;;
46288;SDS011;63105;46.158;14.604;2024-01-25T10:38:20;34.28;;;26.45;;
46288;SDS011;63105;46.158;14.604;2024-01-25T10:40:46;36.53;;;26.40;;
46288;SDS011;63105;46.158;14.604;2024-01-25T10:43:11;34.22;;;24.67;;
46288;SDS011;63105;46.158;14.604;2024-01-25T10:45:37;35.03;;;25.95;;
46288;SDS011;63105;46.158;14.604;2024-01-25T10:48:02;34.00;;;25.95;;
46288;SDS011;63105;46.158;14.604;2024-01-25T10:50:27;42.05;;;31.15;;
46288;SDS011;63105;46.158;14.604;2024-01-25T10:52:53;36.10;;;26.55;;
46288;SDS011;63105;46.158;14.604;2024-01-25T10:55:18;34.42;;;26.08;;
46288;SDS011;63105;46.158;14.604;2024-01-25T10:57:44;34.30;;;25.65;;
46288;SDS011;63105;46.158;14.604;2024-01-25T11:00:11;34.28;;;25.77;;
46288;SDS011;63105;46.158;14.604;2024-01-25T11:02:37;38.95;;;28.20;;
46288;SDS011;63105;46.158;14.604;2024-01-25T11:05:13;35.75;;;25.73;;
46288;SDS011;63105;46.158;14.604;2024-01-25T11:10:11;43.08;;;31.33;;
46288;SDS011;63105;46.158;14.604;2024-01-25T11:12:46;55.33;;;40.50;;
46288;SDS011;63105;46.158;14.604;2024-01-25T11:15:16;39.27;;;29.13;;
46288;SDS011;63105;46.158;14.604;2024-01-25T11:17:42;35.08;;;27.40;;
46288;SDS011;63105;46.158;14.604;2024-01-25T11:20:12;35.95;;;27.83;;
46288;SDS011;63105;46.158;14.604;2024-01-25T11:22:38;39.63;;;27.75;;
46288;SDS011;63105;46.158;14.604;2024-01-25T11:25:12;39.38;;;29.17;;
46288;SDS011;63105;46.158;14.604;2024-01-25T11:27:38;37.97;;;27.10;;
46288;SDS011;63105;46.158;14.604;2024-01-25T11:30:05;40.00;;;28.88;;
46288;SDS011;63105;46.158;14.604;2024-01-25T11:32:32;37.22;;;27.63;;
46288;SDS011;63105;46.158;14.604;2024-01-25T11:34:58;39.30;;;28.80;;
46288;SDS011;63105;46.158;14.604;2024-01-25T11:37:23;37.90;;;28.17;;
46288;SDS011;63105;46.158;14.604;2024-01-25T11:39:48;39.50;;;29.10;;
46288;SDS011;63105;46.158;14.604;2024-01-25T11:42:14;37.13;;;28.63;;
46288;SDS011;63105;46.158;14.604;2024-01-25T11:44:39;37.67;;;27.48;;
46288;SDS011;63105;46.158;14.604;2024-01-25T11:47:04;41.80;;;32.28;;
46288;SDS011;63105;46.158;14.604;2024-01-25T11:49:30;39.95;;;28.85;;
46288;SDS011;63105;46.158;14.604;2024-01-25T11:51:55;31.55;;;24.42;;
46288;SDS011;63105;46.158;14.604;2024-01-25T11:54:20;40.08;;;29.02;;
46288;SDS011;63105;46.158;14.604;2024-01-25T11:56:45;37.47;;;28.48;;
46288;SDS011;63105;46.158;14.604;2024-01-25T11:59:11;35.35;;;27.05;;
46288;SDS011;63105;46.158;14.604;2024-01-25T12:01:37;36.90;;;26.25;;
46288;SDS011;63105;46.158;14.604;2024-01-25T12:04:02;35.95;;;27.80;;
46288;SDS011;63105;46.158;14.604;2024-01-25T12:06:27;36.35;;;27.88;;
46288;SDS011;63105;46.158;14.604;2024-01-25T12:08:53;35.70;;;26.88;;
46288;SDS011;63105;46.158;14.604;2024-01-25T12:11:18;38.05;;;27.85;;
46288;SDS011;63105;46.158;14.604;2024-01-25T12:13:47;36.35;;;26.42;;
46288;SDS011;63105;46.158;14.604;2024-01-25T12:16:12;35.28;;;25.55;;
46288;SDS011;63105;46.158;14.604;2024-01-25T12:18:40;38.92;;;28.00;;
46288;SDS011;63105;46.158;14.604;2024-01-25T12:21:05;35.00;;;26.65;;
46288;SDS011;63105;46.158;14.604;2024-01-25T12:25:58;41.63;;;28.77;;
46288;SDS011;63105;46.158;14.604;2024-01-25T12:28:25;36.38;;;26.85;;
46288;SDS011;63105;46.158;14.604;2024-01-25T12:30:50;35.13;;;25.98;;
46288;SDS011;63105;46.158;14.604;2024-01-25T12:33:16;33.05;;;25.00;;
46288;SDS011;63105;46.158;14.604;2024-01-25T12:35:41;34.95;;;25.60;;
46288;SDS011;63105;46.158;14.604;2024-01-25T12:38:07;31.88;;;24.30;;
46288;SDS011;63105;46.158;14.604;2024-01-25T12:40:32;34.40;;;25.83;;
46288;SDS011;63105;46.158;14.604;2024-01-25T12:42:59;36.35;;;26.77;;
46288;SDS011;63105;46.158;14.604;2024-01-25T12:45:24;35.30;;;25.85;;
46288;SDS011;63105;46.158;14.604;2024-01-25T12:47:49;33.92;;;24.58;;
46288;SDS011;63105;46.158;14.604;2024-01-25T12:50:15;33.30;;;24.27;;
46288;SDS011;63105;46.158;14.604;2024-01-25T12:52:40;33.58;;;25.40;;
46288;SDS011;63105;46.158;14.604;2024-01-25T12:55:05;34.03;;;24.70;;
46288;SDS011;63105;46.158;14.604;2024-01-25T12:57:30;34.55;;;25.40;;
46288;SDS011;63105;46.158;14.604;2024-01-25T12:59:56;34.42;;;26.33;;
46288;SDS011;63105;46.158;14.604;2024-01-25T13:02:21;41.90;;;30.40;;
46288;SDS011;63105;46.158;14.604;2024-01-25T13:04:46;36.22;;;26.60;;
46288;SDS011;63105;46.158;14.604;2024-01-25T13:07:11;38.72;;;27.85;;
46288;SDS011;63105;46.158;14.604;2024-01-25T13:09:37;36.30;;;27.13;;
46288;SDS011;63105;46.158;14.604;2024-01-25T13:12:02;33.80;;;24.90;;
46288;SDS011;63105;46.158;14.604;2024-01-25T13:14:27;34.53;;;25.17;;
46288;SDS011;63105;46.158;14.604;2024-01-25T13:16:52;38.08;;;28.60;;
46288;SDS011;63105;46.158;14.604;2024-01-25T13:19:18;34.78;;;26.05;;
46288;SDS011;63105;46.158;14.604;2024-01-25T13:21:43;33.03;;;25.45;;
46288;SDS011;63105;46.158;14.604;2024-01-25T13:24:08;44.88;;;30.92;;
46288;SDS011;63105;46.158;14.604;2024-01-25T13:26:36;38.08;;;29.00;;
46288;SDS011;63105;46.158;14.604;2024-01-25T13:29:02;35.25;;;27.67;;
46288;SDS011;63105;46.158;14.604;2024-01-25T13:31:27;35.35;;;26.33;;
46288;SDS011;63105;46.158;14.604;2024-01-25T13:33:52;42.75;;;32.42;;
46288;SDS011;63105;46.158;14.604;2024-01-25T13:36:17;35.10;;;26.88;;
46288;SDS011;63105;46.158;14.604;2024-01-25T13:38:43;40.13;;;29.67;;
46288;SDS011;63105;46.158;14.604;2024-01-25T13:41:08;37.08;;;28.70;;
46288;SDS011;63105;46.158;14.604;2024-01-25T13:43:33;39.78;;;27.55;;
46288;SDS011;63105;46.158;14.604;2024-01-25T13:45:58;43.50;;;32.15;;
46288;SDS011;63105;46.158;14.604;2024-01-25T13:48:23;34.67;;;26.20;;
46288;SDS011;63105;46.158;14.604;2024-01-25T13:50:49;31.45;;;24.45;;
46288;SDS011;63105;46.158;14.604;2024-01-25T13:53:14;32.72;;;24.65;;
46288;SDS011;63105;46.158;14.604;2024-01-25T13:55:39;35.65;;;26.70;;
46288;SDS011;63105;46.158;14.604;2024-01-25T13:58:04;34.70;;;26.42;;
46288;SDS011;63105;46.158;14.604;2024-01-25T14:00:30;35.53;;;27.17;;
46288;SDS011;63105;46.158;14.604;2024-01-25T14:02:55;39.28;;;29.10;;
46288;SDS011;63105;46.158;14.604;2024-01-25T14:05:20;37.80;;;27.42;;
46288;SDS011;63105;46.158;14.604;2024-01-25T14:07:45;33.95;;;25.73;;
46288;SDS011;63105;46.158;14.604;2024-01-25T14:10:11;35.35;;;25.90;;